createdAt,value
2023-11-19T00:09:34.859Z,99.99
2023-11-19T00:21:31.285Z,99.99
2023-11-19T00:49:34.492Z,99.99
2023-11-19T00:51:31.047Z,99.99
2023-11-19T01:09:34.305Z,99.99
2023-11-19T01:21:30.808Z,99.99
2023-11-19T01:51:30.556Z,99.99
2023-11-19T02:21:30.183Z,99.99
2023-11-19T02:51:29.993Z,99.99
2023-11-19T03:21:29.732Z,99.99
2023-11-19T03:51:29.405Z,99.99
2023-11-19T04:12:32.766Z,99.99
2023-11-19T04:21:29.215Z,99.99
2023-11-19T04:51:28.973Z,99.99
2023-11-19T05:21:28.664Z,99.99
2023-11-19T05:51:28.388Z,99.99
2023-11-19T06:51:27.869Z,99.99
2023-11-19T07:21:27.583Z,99.99
2023-11-19T07:51:27.317Z,99.99
2023-11-19T08:21:27.086Z,99.99
2023-11-19T08:44:30.800Z,99.99
2023-11-19T08:51:26.882Z,99.99
2023-11-19T09:21:26.616Z,99.99
2023-11-19T09:43:30.308Z,99.99
2023-11-19T09:51:26.443Z,99.99
2023-11-19T10:21:26.190Z,99.31
2023-11-19T10:51:25.941Z,96.3
2023-11-19T11:21:25.793Z,96.09
2023-11-19T11:46:29.568Z,95.97
2023-11-19T11:51:25.594Z,95.97
2023-11-19T12:21:25.271Z,93.57
2023-11-19T13:03:28.917Z,91.56
2023-11-19T13:06:28.830Z,91.56
2023-11-19T13:12:28.766Z,91.56
2023-11-19T13:21:24.604Z,91.56
2023-11-19T13:41:28.471Z,96.86
2023-11-19T13:51:24.332Z,96.86
2023-11-19T14:16:28.217Z,95.75
2023-11-19T14:21:24.567Z,95.75
2023-11-19T14:51:23.792Z,96.97
2023-11-19T15:04:27.824Z,99.74
2023-11-19T15:21:23.499Z,99.74
2023-11-19T15:51:23.278Z,99.99
2023-11-19T16:21:22.993Z,99.99
2023-11-19T16:51:22.806Z,99.99
2023-11-19T17:21:24.523Z,99.99
2023-11-19T17:51:22.462Z,99.99
2023-11-19T18:21:22.195Z,99.99
2023-11-19T18:51:21.929Z,99.99
2023-11-19T19:21:21.708Z,99.99
2023-11-19T19:51:21.502Z,99.99
2023-11-19T20:51:25.239Z,99.99
2023-11-19T21:21:20.716Z,99.99
2023-11-19T21:51:20.475Z,99.99
2023-11-19T22:51:20.070Z,99.99
2023-11-19T23:21:19.843Z,99.99
2023-11-19T23:51:19.601Z,99.99
